createdAt,value
2018-02-23T00:00:58.398Z,1019.01
2018-02-23T00:01:58.352Z,1018.97
2018-02-23T00:02:58.304Z,1018.97
2018-02-23T00:03:58.250Z,1018.92
2018-02-23T00:04:58.200Z,1018.92
2018-02-23T00:05:58.146Z,1018.93
2018-02-23T00:06:58.094Z,1018.94
2018-02-23T00:07:58.041Z,1018.93
2018-02-23T00:08:57.989Z,1018.93
2018-02-23T00:09:57.942Z,1018.97
2018-02-23T00:10:57.887Z,1018.92
2018-02-23T00:11:57.839Z,1018.90
2018-02-23T00:12:57.787Z,1018.91
2018-02-23T00:13:57.738Z,1018.92
2018-02-23T00:14:57.684Z,1018.90
2018-02-23T00:15:57.637Z,1018.91
2018-02-23T00:16:57.582Z,1018.93
2018-02-23T00:17:57.531Z,1018.91
2018-02-23T00:18:57.485Z,1018.87
2018-02-23T00:19:57.429Z,1018.91
2018-02-23T00:20:57.379Z,1018.92
2018-02-23T00:21:57.327Z,1018.89
2018-02-23T00:22:57.275Z,1018.93
2018-02-23T00:23:57.224Z,1018.94
2018-02-23T00:24:57.175Z,1018.88
2018-02-23T00:25:57.133Z,1018.88
2018-02-23T00:26:57.071Z,1018.88
2018-02-23T00:27:57.022Z,1018.91
2018-02-23T00:28:56.975Z,1018.92
2018-02-23T00:29:56.919Z,1018.93
2018-02-23T00:30:56.872Z,1018.92
2018-02-23T00:31:56.817Z,1018.94
2018-02-23T00:32:56.765Z,1018.89
2018-02-23T00:33:56.715Z,1018.94
2018-02-23T00:34:56.671Z,1018.95
2018-02-23T00:35:56.614Z,1018.92
2018-02-23T00:36:56.562Z,1018.95
2018-02-23T00:37:56.513Z,1018.91
2018-02-23T00:38:56.461Z,1018.92
2018-02-23T00:39:56.410Z,1018.92
2018-02-23T00:40:56.358Z,1018.93
2018-02-23T00:41:56.306Z,1018.95
2018-02-23T00:42:56.255Z,1018.95
2018-02-23T00:43:56.204Z,1018.95
2018-02-23T00:44:56.158Z,1018.95
2018-02-23T00:45:56.105Z,1018.95
2018-02-23T00:46:56.050Z,1018.97
2018-02-23T00:47:56.000Z,1018.98
2018-02-23T00:48:55.951Z,1018.96
2018-02-23T00:49:55.899Z,1019.00
2018-02-23T00:50:55.846Z,1019.02
2018-02-23T00:51:55.798Z,1019.02
2018-02-23T00:52:55.745Z,1019.00
2018-02-23T00:53:55.693Z,1019.03
2018-02-23T00:54:55.642Z,1019.04
2018-02-23T00:55:55.590Z,1019.02
2018-02-23T00:56:55.544Z,1019.05
2018-02-23T00:57:55.489Z,1019.07
2018-02-23T00:58:55.437Z,1019.07
2018-02-23T00:59:55.389Z,1019.01
2018-02-23T01:00:55.338Z,1019.02
2018-02-23T01:01:55.286Z,1019.02
2018-02-23T01:02:55.233Z,1019.03
2018-02-23T01:03:55.184Z,1019.05
2018-02-23T01:04:55.132Z,1019.06
2018-02-23T01:05:55.087Z,1019.05
2018-02-23T01:06:55.028Z,1019.04
2018-02-23T01:07:54.979Z,1019.02
2018-02-23T01:08:54.927Z,1018.98
2018-02-23T01:09:54.877Z,1018.97
2018-02-23T01:10:54.824Z,1019.01
2018-02-23T01:11:54.773Z,1019.01
2018-02-23T01:12:54.722Z,1018.98
2018-02-23T01:13:54.674Z,1018.95
2018-02-23T01:14:54.619Z,1018.95
2018-02-23T01:15:54.569Z,1018.97
2018-02-23T01:16:54.519Z,1018.91
2018-02-23T01:17:54.469Z,1018.92
2018-02-23T01:18:54.415Z,1018.88
2018-02-23T01:19:54.366Z,1018.88
2018-02-23T01:20:54.313Z,1018.89
2018-02-23T01:21:54.263Z,1018.87
2018-02-23T01:22:54.210Z,1018.91
2018-02-23T01:23:54.160Z,1018.91
2018-02-23T01:24:54.109Z,1018.93
2018-02-23T01:25:54.058Z,1018.85
2018-02-23T01:26:54.011Z,1018.89
2018-02-23T01:27:53.960Z,1018.83
2018-02-23T01:28:53.905Z,1018.79
2018-02-23T01:29:53.855Z,1018.81
2018-02-23T01:30:53.804Z,1018.82
2018-02-23T01:31:53.750Z,1018.82
2018-02-23T01:32:53.699Z,1018.81
2018-02-23T01:33:53.652Z,1018.81
2018-02-23T01:34:53.598Z,1018.80
2018-02-23T01:35:53.550Z,1018.80
2018-02-23T01:36:53.495Z,1018.77
2018-02-23T01:37:53.444Z,1018.80
2018-02-23T01:38:53.393Z,1018.76
2018-02-23T01:39:53.341Z,1018.82
2018-02-23T01:40:53.292Z,1018.80
2018-02-23T01:41:53.245Z,1018.71
2018-02-23T01:42:53.187Z,1018.71
2018-02-23T01:43:53.136Z,1018.72
2018-02-23T01:44:53.086Z,1018.71
2018-02-23T01:45:53.034Z,1018.74
2018-02-23T01:46:52.985Z,1018.73
2018-02-23T01:47:52.933Z,1018.71
2018-02-23T01:48:52.881Z,1018.69
2018-02-23T01:49:52.830Z,1018.68
2018-02-23T01:50:52.784Z,1018.67
2018-02-23T01:51:52.727Z,1018.66
2018-02-23T01:52:52.680Z,1018.72
2018-02-23T01:53:52.628Z,1018.69
2018-02-23T01:54:52.575Z,1018.66
2018-02-23T01:55:52.526Z,1018.69
2018-02-23T01:56:52.471Z,1018.68
2018-02-23T01:57:52.979Z,1018.62
2018-02-23T01:58:52.926Z,1018.63
2018-02-23T01:59:52.326Z,1018.62
2018-02-23T02:00:52.266Z,1018.62
2018-02-23T02:01:52.218Z,1018.60
2018-02-23T02:02:52.165Z,1018.64
2018-02-23T02:03:52.114Z,1018.62
2018-02-23T02:04:52.063Z,1018.57
2018-02-23T02:05:52.013Z,1018.58
2018-02-23T02:06:51.963Z,1018.60
2018-02-23T02:07:51.913Z,1018.59
2018-02-23T02:08:51.858Z,1018.54
2018-02-23T02:09:51.806Z,1018.57
2018-02-23T02:10:51.755Z,1018.58
2018-02-23T02:11:51.705Z,1018.58
2018-02-23T02:12:51.653Z,1018.53
2018-02-23T02:13:51.601Z,1018.51
2018-02-23T02:14:51.550Z,1018.54
2018-02-23T02:15:51.497Z,1018.54
2018-02-23T02:16:51.450Z,1018.53
2018-02-23T02:17:51.398Z,1018.53
2018-02-23T02:18:51.345Z,1018.55
2018-02-23T02:19:51.296Z,1018.47
2018-02-23T02:20:51.245Z,1018.52
2018-02-23T02:21:51.192Z,1018.59
2018-02-23T02:22:51.146Z,1018.50
2018-02-23T02:23:51.092Z,1018.56
2018-02-23T02:24:51.037Z,1018.53
2018-02-23T02:25:50.988Z,1018.52
2018-02-23T02:26:50.935Z,1018.53
2018-02-23T02:27:50.886Z,1018.52
2018-02-23T02:28:50.834Z,1018.56
2018-02-23T02:29:50.785Z,1018.54
2018-02-23T02:30:50.729Z,1018.60
2018-02-23T02:31:50.684Z,1018.53
2018-02-23T02:32:50.630Z,1018.56
2018-02-23T02:33:50.581Z,1018.57
2018-02-23T02:34:50.526Z,1018.58
2018-02-23T02:35:50.477Z,1018.60
2018-02-23T02:36:50.425Z,1018.52
2018-02-23T02:37:50.375Z,1018.60
2018-02-23T02:38:50.322Z,1018.56
2018-02-23T02:39:50.271Z,1018.60
2018-02-23T02:40:50.221Z,1018.54
2018-02-23T02:41:50.169Z,1018.56
2018-02-23T02:42:50.117Z,1018.55
2018-02-23T02:43:50.074Z,1018.49
2018-02-23T02:44:50.014Z,1018.50
2018-02-23T02:45:49.963Z,1018.49
2018-02-23T02:46:49.986Z,1018.44
2018-02-23T02:47:49.861Z,1018.43
2018-02-23T02:48:49.814Z,1018.41
2018-02-23T02:49:49.758Z,1018.42
2018-02-23T02:50:49.708Z,1018.40
2018-02-23T02:51:49.656Z,1018.40
2018-02-23T02:52:49.605Z,1018.43
2018-02-23T02:53:49.554Z,1018.42
2018-02-23T02:54:49.501Z,1018.43
2018-02-23T02:55:49.452Z,1018.37
2018-02-23T02:56:49.401Z,1018.40
2018-02-23T02:57:49.348Z,1018.41
2018-02-23T02:58:49.297Z,1018.37
2018-02-23T02:59:49.247Z,1018.38
2018-02-23T03:00:49.194Z,1018.39
2018-02-23T03:01:49.146Z,1018.35
2018-02-23T03:02:49.092Z,1018.32
2018-02-23T03:03:49.045Z,1018.36
2018-02-23T03:04:48.989Z,1018.33
2018-02-23T03:05:48.941Z,1018.33
2018-02-23T03:06:48.897Z,1018.29
2018-02-23T03:07:48.834Z,1018.30
2018-02-23T03:08:48.786Z,1018.32
2018-02-23T03:09:48.735Z,1018.30
2018-02-23T03:10:48.682Z,1018.29
2018-02-23T03:11:48.630Z,1018.24
2018-02-23T03:12:48.579Z,1018.26
2018-02-23T03:13:48.526Z,1018.26
2018-02-23T03:14:48.476Z,1018.28
2018-02-23T03:15:48.424Z,1018.32
2018-02-23T03:16:48.375Z,1018.33
2018-02-23T03:17:48.325Z,1018.36
2018-02-23T03:18:48.276Z,1018.38
2018-02-23T03:19:48.228Z,1018.36
2018-02-23T03:20:48.170Z,1018.38
2018-02-23T03:21:48.125Z,1018.35
2018-02-23T03:22:48.071Z,1018.37
2018-02-23T03:23:48.018Z,1018.33
2018-02-23T03:24:47.965Z,1018.37
2018-02-23T03:25:47.915Z,1018.41
2018-02-23T03:26:47.865Z,1018.40
2018-02-23T03:27:47.811Z,1018.39
2018-02-23T03:28:47.765Z,1018.40
2018-02-23T03:29:47.716Z,1018.37
2018-02-23T03:30:47.658Z,1018.37
2018-02-23T03:31:47.608Z,1018.36
2018-02-23T03:32:47.560Z,1018.40
2018-02-23T03:33:47.505Z,1018.37
2018-02-23T03:34:47.455Z,1018.35
2018-02-23T03:35:47.404Z,1018.38
2018-02-23T03:36:47.354Z,1018.34
2018-02-23T03:37:47.301Z,1018.33
2018-02-23T03:38:47.250Z,1018.31
2018-02-23T03:39:47.197Z,1018.34
2018-02-23T03:40:47.146Z,1018.32
2018-02-23T03:41:47.102Z,1018.33
2018-02-23T03:42:47.044Z,1018.31
2018-02-23T03:43:46.993Z,1018.29
2018-02-23T03:44:46.943Z,1018.32
2018-02-23T03:45:46.891Z,1018.35
2018-02-23T03:46:46.842Z,1018.36
2018-02-23T03:47:46.793Z,1018.32
2018-02-23T03:48:46.734Z,1018.36
2018-02-23T03:49:46.686Z,1018.39
2018-02-23T03:50:46.634Z,1018.34
2018-02-23T03:51:46.586Z,1018.35
2018-02-23T03:52:46.534Z,1018.33
2018-02-23T03:53:46.481Z,1018.30
2018-02-23T03:54:46.428Z,1018.33
2018-02-23T03:55:46.380Z,1018.33
2018-02-23T03:56:46.328Z,1018.36
2018-02-23T03:57:46.274Z,1018.37
2018-02-23T03:58:46.222Z,1018.39
2018-02-23T03:59:46.172Z,1018.39
2018-02-23T04:00:46.121Z,1018.33
2018-02-23T04:01:46.068Z,1018.39
2018-02-23T04:02:46.017Z,1018.32
2018-02-23T04:03:45.970Z,1018.30
2018-02-23T04:04:45.924Z,1018.31
2018-02-23T04:05:45.867Z,1018.29
2018-02-23T04:06:45.812Z,1018.27
2018-02-23T04:07:45.761Z,1018.28
2018-02-23T04:08:45.712Z,1018.18
2018-02-23T04:09:45.660Z,1018.24
2018-02-23T04:10:45.611Z,1018.21
2018-02-23T04:11:45.559Z,1018.30
2018-02-23T04:12:45.505Z,1018.21
2018-02-23T04:13:45.453Z,1018.22
2018-02-23T04:14:45.405Z,1018.27
2018-02-23T04:15:45.352Z,1018.23
2018-02-23T04:16:45.299Z,1018.23
2018-02-23T04:17:45.250Z,1018.22
2018-02-23T04:18:45.197Z,1018.26
2018-02-23T04:19:45.146Z,1018.26
2018-02-23T04:20:45.094Z,1018.28
2018-02-23T04:21:45.051Z,1018.30
2018-02-23T04:22:44.997Z,1018.30
2018-02-23T04:23:44.942Z,1018.31
2018-02-23T04:24:44.890Z,1018.33
2018-02-23T04:25:44.839Z,1018.34
2018-02-23T04:26:44.791Z,1018.33
2018-02-23T04:27:44.737Z,1018.32
2018-02-23T04:28:44.684Z,1018.40
2018-02-23T04:29:44.632Z,1018.39
2018-02-23T04:30:44.589Z,1018.38
2018-02-23T04:31:44.534Z,1018.33
2018-02-23T04:32:44.478Z,1018.34
2018-02-23T04:33:44.426Z,1018.39
2018-02-23T04:34:44.375Z,1018.38
2018-02-23T04:35:44.325Z,1018.39
2018-02-23T04:36:44.274Z,1018.39
2018-02-23T04:37:44.226Z,1018.43
2018-02-23T04:38:44.170Z,1018.42
2018-02-23T04:39:44.121Z,1018.38
2018-02-23T04:40:44.077Z,1018.42
2018-02-23T04:41:44.020Z,1018.44
2018-02-23T04:42:43.963Z,1018.41
2018-02-23T04:43:43.915Z,1018.44
2018-02-23T04:44:43.864Z,1018.42
2018-02-23T04:45:43.815Z,1018.43
2018-02-23T04:46:43.762Z,1018.49
2018-02-23T04:47:43.708Z,1018.43
2018-02-23T04:48:43.657Z,1018.42
2018-02-23T04:49:43.606Z,1018.39
2018-02-23T04:50:43.560Z,1018.39
2018-02-23T04:51:43.507Z,1018.44
2018-02-23T04:52:43.451Z,1018.42
2018-02-23T04:53:43.400Z,1018.40
2018-02-23T04:54:43.349Z,1018.40
2018-02-23T04:55:43.298Z,1018.38
2018-02-23T04:56:43.244Z,1018.39
2018-02-23T04:57:43.196Z,1018.36
2018-02-23T04:58:43.143Z,1018.38
2018-02-23T04:59:43.095Z,1018.38
2018-02-23T05:00:43.045Z,1018.38
2018-02-23T05:01:42.989Z,1018.41
2018-02-23T05:02:42.936Z,1018.43
2018-02-23T05:03:42.888Z,1018.50
2018-02-23T05:04:42.834Z,1018.43
2018-02-23T05:05:42.784Z,1018.47
2018-02-23T05:06:42.729Z,1018.49
2018-02-23T05:07:42.697Z,1018.49
2018-02-23T05:08:42.654Z,1018.50
2018-02-23T05:09:42.578Z,1018.50
2018-02-23T05:10:42.531Z,1018.48
2018-02-23T05:11:42.481Z,1018.53
2018-02-23T05:12:42.422Z,1018.50
2018-02-23T05:13:42.371Z,1018.51
2018-02-23T05:14:42.320Z,1018.51
2018-02-23T05:15:42.267Z,1018.48
2018-02-23T05:16:42.219Z,1018.46
2018-02-23T05:17:42.167Z,1018.48
2018-02-23T05:18:42.113Z,1018.50
2018-02-23T05:19:42.059Z,1018.50
2018-02-23T05:20:42.014Z,1018.44
2018-02-23T05:21:41.961Z,1018.49
2018-02-23T05:22:41.914Z,1018.43
2018-02-23T05:23:41.856Z,1018.49
2018-02-23T05:24:41.804Z,1018.48
2018-02-23T05:25:41.760Z,1018.50
2018-02-23T05:26:41.706Z,1018.49
2018-02-23T05:27:41.652Z,1018.53
2018-02-23T05:28:41.599Z,1018.46
2018-02-23T05:29:41.548Z,1018.49
2018-02-23T05:30:41.497Z,1018.50
2018-02-23T05:31:41.447Z,1018.51
2018-02-23T05:32:41.399Z,1018.44
2018-02-23T05:33:41.342Z,1018.46
2018-02-23T05:34:41.290Z,1018.49
2018-02-23T05:35:41.237Z,1018.45
2018-02-23T05:36:41.186Z,1018.44
2018-02-23T05:37:41.136Z,1018.42
2018-02-23T05:38:41.086Z,1018.40
2018-02-23T05:39:41.034Z,1018.42
2018-02-23T05:40:40.986Z,1018.45
2018-02-23T05:41:40.932Z,1018.44
2018-02-23T05:42:40.879Z,1018.44
2018-02-23T05:43:40.826Z,1018.49
2018-02-23T05:44:40.781Z,1018.45
2018-02-23T05:45:40.726Z,1018.36
2018-02-23T05:46:40.672Z,1018.47
2018-02-23T05:47:40.622Z,1018.45
2018-02-23T05:48:40.567Z,1018.50
2018-02-23T05:49:40.518Z,1018.44
2018-02-23T05:50:40.471Z,1018.43
2018-02-23T05:51:40.417Z,1018.40
2018-02-23T05:52:40.371Z,1018.39
2018-02-23T05:53:40.313Z,1018.46
2018-02-23T05:54:40.259Z,1018.43
2018-02-23T05:55:40.208Z,1018.40
2018-02-23T05:56:40.158Z,1018.47
2018-02-23T05:57:40.109Z,1018.43
2018-02-23T05:58:40.057Z,1018.43
2018-02-23T05:59:40.008Z,1018.44
2018-02-23T06:00:39.951Z,1018.47
2018-02-23T06:01:39.901Z,1018.43
2018-02-23T06:02:39.847Z,1018.43
2018-02-23T06:03:39.797Z,1018.48
2018-02-23T06:04:39.746Z,1018.48
2018-02-23T06:05:39.705Z,1018.50
2018-02-23T06:06:39.643Z,1018.46
2018-02-23T06:07:39.597Z,1018.50
2018-02-23T06:08:39.539Z,1018.53
2018-02-23T06:09:39.491Z,1018.54
2018-02-23T06:10:39.437Z,1018.55
2018-02-23T06:11:39.387Z,1018.57
2018-02-23T06:12:39.331Z,1018.56
2018-02-23T06:13:39.288Z,1018.56
2018-02-23T06:14:39.232Z,1018.59
2018-02-23T06:15:39.176Z,1018.58
2018-02-23T06:16:39.154Z,1018.59
2018-02-23T06:17:39.075Z,1018.64
2018-02-23T06:18:39.024Z,1018.58
2018-02-23T06:19:38.973Z,1018.59
2018-02-23T06:20:38.919Z,1018.62
2018-02-23T06:21:38.872Z,1018.61
2018-02-23T06:22:38.822Z,1018.66
2018-02-23T06:23:38.766Z,1018.65
2018-02-23T06:24:38.717Z,1018.62
2018-02-23T06:25:38.671Z,1018.68
2018-02-23T06:26:38.615Z,1018.62
2018-02-23T06:27:38.565Z,1018.65
2018-02-23T06:28:38.520Z,1018.71
2018-02-23T06:29:38.457Z,1018.70
2018-02-23T06:30:38.409Z,1018.73
2018-02-23T06:31:38.357Z,1018.72
2018-02-23T06:32:38.303Z,1018.72
2018-02-23T06:33:38.256Z,1018.75
2018-02-23T06:34:38.204Z,1018.71
2018-02-23T06:35:38.148Z,1018.75
2018-02-23T06:36:38.096Z,1018.76
2018-02-23T06:37:38.050Z,1018.72
2018-02-23T06:38:37.993Z,1018.75
2018-02-23T06:39:37.942Z,1018.74
2018-02-23T06:40:37.891Z,1018.74
2018-02-23T06:41:37.843Z,1018.78
2018-02-23T06:42:37.790Z,1018.78
2018-02-23T06:43:37.740Z,1018.77
2018-02-23T06:44:37.685Z,1018.77
2018-02-23T06:45:37.634Z,1018.73
2018-02-23T06:46:37.584Z,1018.81
2018-02-23T06:47:37.531Z,1018.86
2018-02-23T06:48:37.480Z,1018.87
2018-02-23T06:49:37.429Z,1018.83
2018-02-23T06:50:37.374Z,1018.88
2018-02-23T06:51:37.326Z,1018.91
2018-02-23T06:52:37.274Z,1018.92
2018-02-23T06:53:37.224Z,1018.91
2018-02-23T06:54:37.170Z,1018.88
2018-02-23T06:55:37.119Z,1018.86
2018-02-23T06:56:37.069Z,1018.88
2018-02-23T06:57:37.019Z,1018.93
2018-02-23T06:58:36.968Z,1018.91
2018-02-23T06:59:36.918Z,1018.88
2018-02-23T07:00:36.861Z,1018.95
2018-02-23T07:01:36.810Z,1018.96
2018-02-23T07:02:36.758Z,1018.97
2018-02-23T07:03:36.708Z,1018.91
2018-02-23T07:04:36.658Z,1018.93
2018-02-23T07:05:36.606Z,1018.92
2018-02-23T07:06:36.555Z,1018.87
2018-02-23T07:07:36.508Z,1018.90
2018-02-23T07:08:36.454Z,1018.94
2018-02-23T07:09:36.401Z,1018.92
2018-02-23T07:10:36.351Z,1018.97
2018-02-23T07:11:36.301Z,1018.96
2018-02-23T07:12:36.249Z,1019.00
2018-02-23T07:13:36.195Z,1019.02
2018-02-23T07:14:36.145Z,1018.97
2018-02-23T07:15:36.093Z,1019.03
2018-02-23T07:16:36.039Z,1019.01
2018-02-23T07:17:35.995Z,1019.01
2018-02-23T07:18:35.937Z,1019.02
2018-02-23T07:19:35.886Z,1019.02
2018-02-23T07:20:35.836Z,1019.04
2018-02-23T07:21:35.783Z,1019.05
2018-02-23T07:22:35.734Z,1019.03
2018-02-23T07:23:35.679Z,1019.02
2018-02-23T07:24:35.631Z,1019.00
2018-02-23T07:25:35.579Z,1019.04
2018-02-23T07:26:35.528Z,1019.03
2018-02-23T07:27:35.477Z,1019.03
2018-02-23T07:28:35.424Z,1019.02
2018-02-23T07:29:35.374Z,1019.01
2018-02-23T07:30:35.322Z,1019.04
2018-02-23T07:31:35.269Z,1019.08
2018-02-23T07:32:35.222Z,1019.09
2018-02-23T07:33:35.169Z,1019.06
2018-02-23T07:34:35.116Z,1019.06
2018-02-23T07:35:35.066Z,1019.11
2018-02-23T07:36:35.028Z,1019.02
2018-02-23T07:37:34.965Z,1019.06
2018-02-23T07:38:34.922Z,1019.12
2018-02-23T07:39:34.862Z,1019.19
2018-02-23T07:40:34.811Z,1019.12
2018-02-23T07:41:34.763Z,1019.20
2018-02-23T07:42:34.709Z,1019.13
2018-02-23T07:43:34.661Z,1019.20
2018-02-23T07:44:34.610Z,1019.14
2018-02-23T07:45:34.558Z,1019.20
2018-02-23T07:46:34.505Z,1019.15
2018-02-23T07:47:34.458Z,1019.22
2018-02-23T07:48:34.408Z,1019.18
2018-02-23T07:49:34.356Z,1019.17
2018-02-23T07:50:34.304Z,1019.18
2018-02-23T07:51:34.254Z,1019.17
2018-02-23T07:52:34.208Z,1019.19
2018-02-23T07:53:34.157Z,1019.17
2018-02-23T07:54:34.104Z,1019.18
2018-02-23T07:55:34.055Z,1019.20
2018-02-23T07:56:34.006Z,1019.20
2018-02-23T07:57:33.957Z,1019.24
2018-02-23T07:58:33.904Z,1019.18
2018-02-23T07:59:33.858Z,1019.27
2018-02-23T08:00:33.804Z,1019.33
2018-02-23T08:01:33.757Z,1019.35
2018-02-23T08:02:33.704Z,1019.32
2018-02-23T08:03:33.653Z,1019.39
2018-02-23T08:04:33.606Z,1019.27
2018-02-23T08:05:33.555Z,1019.33
2018-02-23T08:06:33.509Z,1019.34
2018-02-23T08:07:33.456Z,1019.33
2018-02-23T08:08:33.406Z,1019.37
2018-02-23T08:09:33.357Z,1019.31
2018-02-23T08:10:33.306Z,1019.27
2018-02-23T08:11:33.258Z,1019.30
2018-02-23T08:12:33.210Z,1019.32
2018-02-23T08:13:33.163Z,1019.39
2018-02-23T08:14:33.110Z,1019.35
2018-02-23T08:15:33.115Z,1019.36
2018-02-23T08:16:33.014Z,1019.37
2018-02-23T08:17:32.969Z,1019.39
2018-02-23T08:18:32.916Z,1019.38
2018-02-23T08:19:32.870Z,1019.36
2018-02-23T08:20:32.823Z,1019.39
2018-02-23T08:21:32.776Z,1019.43
2018-02-23T08:22:32.729Z,1019.32
2018-02-23T08:23:32.680Z,1019.40
2018-02-23T08:24:32.636Z,1019.27
2018-02-23T08:25:32.588Z,1019.40
2018-02-23T08:26:32.585Z,1019.34
2018-02-23T08:27:32.495Z,1019.40
2018-02-23T08:28:32.449Z,1019.40
2018-02-23T08:29:32.406Z,1019.30
2018-02-23T08:30:32.356Z,1019.40
2018-02-23T08:31:32.312Z,1019.36
2018-02-23T08:32:32.267Z,1019.51
2018-02-23T08:33:32.224Z,1019.46
2018-02-23T08:34:32.179Z,1019.45
2018-02-23T08:35:32.131Z,1019.41
2018-02-23T08:36:32.086Z,1019.43
2018-02-23T08:37:32.041Z,1019.41
2018-02-23T08:38:31.998Z,1019.37
2018-02-23T08:39:31.954Z,1019.44
2018-02-23T08:40:31.907Z,1019.40
2018-02-23T08:41:31.865Z,1019.37
2018-02-23T08:42:31.818Z,1019.30
2018-02-23T08:43:31.774Z,1019.36
2018-02-23T08:44:31.732Z,1019.47
2018-02-23T08:45:31.685Z,1019.50
2018-02-23T08:46:31.646Z,1019.45
2018-02-23T08:47:31.598Z,1019.40
2018-02-23T08:48:31.566Z,1019.34
2018-02-23T08:49:31.507Z,1019.37
2018-02-23T08:50:31.468Z,1019.39
2018-02-23T08:51:31.418Z,1019.42
2018-02-23T08:52:31.376Z,1019.34
2018-02-23T08:53:31.331Z,1019.28
2018-02-23T08:54:31.288Z,1019.36
2018-02-23T08:55:31.243Z,1019.22
2018-02-23T08:56:31.200Z,1019.39
2018-02-23T08:57:31.156Z,1019.42
2018-02-23T08:58:31.113Z,1019.33
2018-02-23T08:59:31.068Z,1019.40
2018-02-23T09:00:31.026Z,1019.23
2018-02-23T09:01:30.985Z,1019.34
2018-02-23T09:02:30.938Z,1019.26
2018-02-23T09:03:30.893Z,1019.28
2018-02-23T09:04:30.850Z,1019.27
2018-02-23T09:05:30.808Z,1019.32
2018-02-23T09:06:30.764Z,1019.33
2018-02-23T09:07:30.721Z,1019.32
2018-02-23T09:08:30.678Z,1019.24
2018-02-23T09:09:30.636Z,1019.28
2018-02-23T09:10:30.589Z,1019.30
2018-02-23T09:11:30.544Z,1019.26
2018-02-23T09:12:30.501Z,1019.23
2018-02-23T09:13:30.457Z,1019.30
2018-02-23T09:14:30.414Z,1019.24
2018-02-23T09:15:30.370Z,1019.28
2018-02-23T09:16:30.325Z,1019.21
2018-02-23T09:17:30.282Z,1019.20
2018-02-23T09:18:30.239Z,1019.23
2018-02-23T09:19:30.196Z,1019.22
2018-02-23T09:20:30.151Z,1019.19
2018-02-23T09:21:30.149Z,1019.33
2018-02-23T09:22:30.073Z,1019.41
2018-02-23T09:23:30.021Z,1019.26
2018-02-23T09:24:29.978Z,1019.25
2018-02-23T09:25:29.933Z,1019.22
2018-02-23T09:26:29.890Z,1019.29
2018-02-23T09:27:29.846Z,1019.23
2018-02-23T09:28:29.801Z,1019.24
2018-02-23T09:29:29.758Z,1019.24
2018-02-23T09:30:29.716Z,1019.26
2018-02-23T09:31:29.726Z,1019.28
2018-02-23T09:32:29.630Z,1019.18
2018-02-23T09:33:29.587Z,1019.30
2018-02-23T09:34:29.539Z,1019.28
2018-02-23T09:35:29.496Z,1019.36
2018-02-23T09:36:29.453Z,1019.32
2018-02-23T09:37:29.410Z,1019.29
2018-02-23T09:38:29.363Z,1019.30
2018-02-23T09:39:29.324Z,1019.32
2018-02-23T09:40:29.276Z,1019.22
2018-02-23T09:41:29.234Z,1019.28
2018-02-23T09:42:29.209Z,1019.39
2018-02-23T09:43:29.147Z,1019.38
2018-02-23T09:44:29.104Z,1019.36
2018-02-23T09:45:29.058Z,1019.31
2018-02-23T09:46:29.013Z,1019.31
2018-02-23T09:47:28.971Z,1019.33
2018-02-23T09:48:28.927Z,1019.34
2018-02-23T09:49:28.885Z,1019.34
2018-02-23T09:50:28.839Z,1019.32
2018-02-23T09:51:28.796Z,1019.33
2018-02-23T09:52:28.748Z,1019.34
2018-02-23T09:53:28.704Z,1019.30
2018-02-23T09:54:28.656Z,1019.31
2018-02-23T09:55:28.612Z,1019.27
2018-02-23T09:56:28.567Z,1019.30
2018-02-23T09:57:28.524Z,1019.36
2018-02-23T09:58:28.477Z,1019.38
2018-02-23T09:59:28.428Z,1019.41
2018-02-23T10:00:28.384Z,1019.39
2018-02-23T10:01:28.339Z,1019.31
2018-02-23T10:02:28.299Z,1019.34
2018-02-23T10:03:28.251Z,1019.40
2018-02-23T10:04:28.203Z,1019.29
2018-02-23T10:05:28.156Z,1019.26
2018-02-23T10:06:28.113Z,1019.33
2018-02-23T10:07:28.065Z,1019.28
2018-02-23T10:08:28.020Z,1019.26
2018-02-23T10:09:27.972Z,1019.25
2018-02-23T10:10:27.924Z,1019.28
2018-02-23T10:11:27.879Z,1019.23
2018-02-23T10:12:27.835Z,1019.26
2018-02-23T10:13:27.786Z,1019.26
2018-02-23T10:14:27.737Z,1019.24
2018-02-23T10:15:27.690Z,1019.19
2018-02-23T10:16:27.645Z,1019.23
2018-02-23T10:17:27.599Z,1019.26
2018-02-23T10:18:27.553Z,1019.16
2018-02-23T10:19:27.505Z,1019.25
2018-02-23T10:20:27.459Z,1019.17
2018-02-23T10:21:27.414Z,1019.16
2018-02-23T10:22:27.365Z,1019.21
2018-02-23T10:23:27.322Z,1019.16
2018-02-23T10:24:27.275Z,1019.17
2018-02-23T10:25:27.227Z,1019.23
2018-02-23T10:26:27.184Z,1019.15
2018-02-23T10:27:27.145Z,1019.29
2018-02-23T10:28:27.083Z,1019.26
2018-02-23T10:29:27.041Z,1019.23
2018-02-23T10:30:26.997Z,1019.26
2018-02-23T10:31:26.947Z,1019.20
2018-02-23T10:32:26.900Z,1019.24
2018-02-23T10:33:26.849Z,1019.15
2018-02-23T10:34:26.808Z,1019.24
2018-02-23T10:35:26.754Z,1019.23
2018-02-23T10:36:26.710Z,1019.28
2018-02-23T10:37:26.665Z,1019.23
2018-02-23T10:38:26.614Z,1019.16
2018-02-23T10:39:26.566Z,1019.18
2018-02-23T10:40:26.520Z,1019.18
2018-02-23T10:41:26.472Z,1019.10
2018-02-23T10:42:26.428Z,1019.10
2018-02-23T10:43:26.382Z,1019.11
2018-02-23T10:44:26.333Z,1019.11
2018-02-23T10:45:26.284Z,1019.00
2018-02-23T10:46:26.240Z,1019.10
2018-02-23T10:47:26.191Z,1019.01
2018-02-23T10:48:26.142Z,1019.11
2018-02-23T10:49:26.100Z,1019.06
2018-02-23T10:50:26.054Z,1019.14
2018-02-23T10:51:26.000Z,1019.04
2018-02-23T10:52:25.952Z,1019.04
2018-02-23T10:53:25.907Z,1018.95
2018-02-23T10:54:25.858Z,1019.04
2018-02-23T10:55:25.815Z,1019.05
2018-02-23T10:56:25.767Z,1019.04
2018-02-23T10:57:25.720Z,1018.99
2018-02-23T10:58:25.672Z,1018.94
2018-02-23T10:59:25.620Z,1018.91
2018-02-23T11:00:25.573Z,1018.95
2018-02-23T11:01:25.528Z,1018.97
2018-02-23T11:02:25.482Z,1018.97
2018-02-23T11:03:25.458Z,1018.95
2018-02-23T11:04:25.383Z,1018.99
2018-02-23T11:05:25.335Z,1018.97
2018-02-23T11:06:25.290Z,1018.96
2018-02-23T11:07:25.247Z,1019.01
2018-02-23T11:08:25.208Z,1018.93
2018-02-23T11:09:25.336Z,1018.99
2018-02-23T11:10:25.099Z,1019.02
2018-02-23T11:11:25.053Z,1018.91
2018-02-23T11:12:25.011Z,1018.91
2018-02-23T11:13:24.957Z,1018.99
2018-02-23T11:14:24.907Z,1018.86
2018-02-23T11:15:24.862Z,1018.86
2018-02-23T11:16:24.815Z,1018.92
2018-02-23T11:17:24.766Z,1018.88
2018-02-23T11:18:24.720Z,1018.87
2018-02-23T11:19:24.676Z,1018.87
2018-02-23T11:20:24.622Z,1018.88
2018-02-23T11:21:24.582Z,1018.90
2018-02-23T11:22:24.525Z,1018.95
2018-02-23T11:23:24.477Z,1018.87
2018-02-23T11:24:24.432Z,1018.77
2018-02-23T11:25:24.382Z,1018.83
2018-02-23T11:26:24.336Z,1018.75
2018-02-23T11:27:24.288Z,1018.74
2018-02-23T11:28:24.238Z,1018.79
2018-02-23T11:29:24.189Z,1018.71
2018-02-23T11:30:24.205Z,1018.70
2018-02-23T11:31:24.100Z,1018.68
2018-02-23T11:32:24.049Z,1018.74
2018-02-23T11:33:23.998Z,1018.72
2018-02-23T11:34:23.950Z,1018.75
2018-02-23T11:35:23.903Z,1018.77
2018-02-23T11:36:23.852Z,1018.72
2018-02-23T11:37:23.806Z,1018.71
2018-02-23T11:38:23.763Z,1018.67
2018-02-23T11:39:23.707Z,1018.70
2018-02-23T11:40:23.665Z,1018.70
2018-02-23T11:41:23.615Z,1018.66
2018-02-23T11:42:23.566Z,1018.65
2018-02-23T11:43:23.515Z,1018.62
2018-02-23T11:44:23.470Z,1018.61
2018-02-23T11:45:23.424Z,1018.60
2018-02-23T11:46:23.377Z,1018.65
2018-02-23T11:47:23.327Z,1018.60
2018-02-23T11:48:23.278Z,1018.57
2018-02-23T11:49:23.231Z,1018.55
2018-02-23T11:50:23.239Z,1018.61
2018-02-23T11:51:23.134Z,1018.56
2018-02-23T11:52:23.083Z,1018.59
2018-02-23T11:53:23.040Z,1018.57
2018-02-23T11:54:22.989Z,1018.66
2018-02-23T11:55:22.940Z,1018.58
2018-02-23T11:56:22.896Z,1018.63
2018-02-23T11:57:22.847Z,1018.63
2018-02-23T11:58:22.801Z,1018.60
2018-02-23T11:59:22.749Z,1018.60
2018-02-23T12:00:22.702Z,1018.54
2018-02-23T12:01:22.652Z,1018.55
2018-02-23T12:02:22.608Z,1018.56
2018-02-23T12:03:22.557Z,1018.51
2018-02-23T12:04:22.510Z,1018.54
2018-02-23T12:05:22.462Z,1018.53